Main page
METAR-TAF:

METAR-TAF

Airports :

Pangborn Memorial Airport

Wenatchee, Washington, United States

latitude: 47-23-56N, longitude: 120-12-25W, elevation: 1250 ft

Current weather observation

The report was made 59 minutes ago, at 19:55 UTC
Wind 8 mph from the Southeast with gusts up to 18 mph
Temperature 73°F
Humidity 27%
Pressure 30.02 in. Hg
Visibility: 10 miles
Clear sky

METAR: KEAT 191955Z AUTO 13007G16KT 10SM CLR 23/03 A3002 RMK AO2 SLP162 T02280033

Time: 13:54 (20:54 UTC)

Forecast

The report was made 3 hours and 23 minutes ago, at 17:31 UTC
Forecast valid from 19 at 18 UTC to 20 at 18 UTC
Wind 7 mph from the South/Southeast
Visibility: 6 miles
Clear sky
From 20 at 1600 UTC
Wind 8 mph from the North
Visibility: 6 miles
Few clouds at a height of 25000 ft

TAF: KEAT 191731Z 1918/2018 16006KT P6SM SKC FM201600 01007KT P6SM FEW250

Weather observations and forecasts of more than 4000 airports (METAR and TAF reports).

The available stations are represented by yellow and red dots on the map.

Hover mouse over dot to see the name of the station.

Then click to see weather observations and forecasts.

To change the map : click on the green buttons with a black cross to zoom in, on the green button with a dash to zoom out, or on the green arrows for adjacent maps.


METAR-TAF: